Wallerville, Mississippi
Current Conditions -  °F | °C
As of 1:53 AM on Friday 19 Dec 2014 (Local Time) from KTUP Reporting Station
Overcast Overcast  
Wind Chill: 40°   Ceiling: 3400
Heat Index: 44°   Visibility: 10mi
Dew Point: 38°   Wind: 7mph
Humidity: 79%   Direction: 50°NE
Pressure: 30.21"   Gusts: NA
Location:  34.4917°N, 88.9766°W
Report Text: KTUP 190753Z AUTO 05006KT 10SM OVC034 07/03 A3021 RMK AO2 SLP229 T00670033
Loading
Personal Weather Stations






























Interactive Weather Map New forecast layout! Learn more

10-Day Weather Forecast

Advertisements
Track Severe Weather on mobile